Time;durP1;ratioP1;P1;durP2;ratioP2;P2;SDS_P1;SDS_P2;PMS_P1;PMS_P2;Temp;Humidity;BMP_temperature;BMP_pressure;BME280_temperature;BME280_humidity;BME280_pressure;Samples;Min_cycle;Max_cycle;Signal;HPM_P1;HPM_P2
2021/09/24 00:00:34;;;;;;;5.68;3.90;;;15.00;94.20;;;;;;4973992;28;20054;-77
2021/09/24 00:02:59;;;;;;;8.18;3.92;;;15.10;94.20;;;;;;4972806;28;20019;-77
2021/09/24 00:05:26;;;;;;;6.18;4.10;;;15.30;93.70;;;;;;4973996;28;20027;-77
2021/09/24 00:07:51;;;;;;;7.32;4.00;;;15.20;93.90;;;;;;4974534;28;20102;-77
2021/09/24 00:10:19;;;;;;;7.57;3.88;;;15.30;93.80;;;;;;4974264;28;20063;-77
2021/09/24 00:12:44;;;;;;;5.18;3.13;;;15.30;94.00;;;;;;4973970;28;20106;-77
2021/09/24 00:15:14;;;;;;;6.65;3.72;;;15.20;93.90;;;;;;4974227;28;20184;-77
2021/09/24 00:17:40;;;;;;;7.65;3.92;;;15.10;93.90;;;;;;4974865;28;20125;-77
2021/09/24 00:20:07;;;;;;;7.05;4.10;;;15.10;94.60;;;;;;4977361;28;20544;-77
2021/09/24 00:22:33;;;;;;;7.47;3.90;;;15.10;94.40;;;;;;4977284;28;20520;-77
2021/09/24 00:24:59;;;;;;;6.13;3.95;;;15.10;94.40;;;;;;4977421;28;20023;-77
2021/09/24 00:27:24;;;;;;;7.72;4.03;;;15.10;94.60;;;;;;4977321;28;20539;-77
2021/09/24 00:29:50;;;;;;;5.85;3.58;;;15.10;94.90;;;;;;4977312;28;20046;-77
2021/09/24 00:32:16;;;;;;;5.53;4.00;;;15.10;94.80;;;;;;4977285;28;20027;-77
2021/09/24 00:34:41;;;;;;;5.85;4.15;;;15.20;94.90;;;;;;4977249;28;20023;-77
2021/09/24 00:37:07;;;;;;;8.88;4.50;;;15.30;94.40;;;;;;4977471;28;20023;-77
2021/09/24 00:39:33;;;;;;;6.65;4.15;;;15.30;94.80;;;;;;4977057;28;20078;-77
2021/09/24 00:41:59;;;;;;;7.47;3.88;;;15.20;95.00;;;;;;4977091;28;20019;-77
2021/09/24 00:44:28;;;;;;;6.65;4.68;;;15.20;94.60;;;;;;4977025;28;20027;-77
2021/09/24 00:46:55;;;;;;;6.10;3.97;;;15.20;95.00;;;;;;4977543;28;20034;-77
2021/09/24 00:49:21;;;;;;;7.35;4.07;;;15.20;94.90;;;;;;4976975;28;20035;-77
2021/09/24 00:51:47;;;;;;;7.18;3.95;;;15.20;95.00;;;;;;4976921;28;20031;-77
2021/09/24 00:54:13;;;;;;;6.70;4.60;;;15.20;95.00;;;;;;4977088;28;20457;-77
2021/09/24 00:56:39;;;;;;;8.30;4.10;;;15.20;95.20;;;;;;4977098;28;20034;-77
2021/09/24 00:59:05;;;;;;;7.70;4.40;;;15.10;95.30;;;;;;4976671;28;20038;-77
2021/09/24 01:01:30;;;;;;;6.40;3.90;;;15.10;95.50;;;;;;4976738;28;20030;-77
2021/09/24 01:03:56;;;;;;;7.63;4.10;;;15.10;95.30;;;;;;4976696;28;20489;-77
2021/09/24 01:06:22;;;;;;;5.53;3.60;;;15.20;95.10;;;;;;4976627;28;20023;-77
2021/09/24 01:08:47;;;;;;;6.82;3.63;;;15.10;95.30;;;;;;4976575;28;20031;-77
2021/09/24 01:11:13;;;;;;;6.30;3.92;;;15.20;95.40;;;;;;4976574;28;20098;-77
2021/09/24 01:13:39;;;;;;;6.82;4.10;;;15.20;95.30;;;;;;4976565;28;20026;-77
2021/09/24 01:16:05;;;;;;;6.68;4.22;;;15.30;95.20;;;;;;4977021;28;20491;-77
2021/09/24 01:18:30;;;;;;;5.57;3.63;;;15.30;94.80;;;;;;4976399;28;20107;-77
2021/09/24 01:20:57;;;;;;;9.38;4.00;;;15.20;95.30;;;;;;4976374;28;20027;-77
2021/09/24 01:23:23;;;;;;;6.70;3.97;;;15.30;95.20;;;;;;4976147;28;20407;-77
2021/09/24 01:25:49;;;;;;;6.53;4.10;;;15.30;95.50;;;;;;4976585;28;20101;-77
2021/09/24 01:28:14;;;;;;;5.85;4.05;;;15.30;95.40;;;;;;4976303;28;20101;-77
2021/09/24 01:30:40;;;;;;;6.18;4.13;;;15.20;95.70;;;;;;4975557;28;20038;-77
2021/09/24 01:33:06;;;;;;;9.25;4.03;;;15.10;95.80;;;;;;4976466;28;20031;-77
2021/09/24 01:35:31;;;;;;;5.82;3.70;;;15.00;95.90;;;;;;4976430;28;20027;-77
2021/09/24 01:37:57;;;;;;;6.28;3.63;;;15.10;95.80;;;;;;4976117;28;20030;-77
2021/09/24 01:40:23;;;;;;;5.82;4.00;;;15.20;95.60;;;;;;4974692;28;20035;-77
2021/09/24 01:42:54;;;;;;;6.53;4.10;;;15.20;95.40;;;;;;4975982;28;20049;-77
2021/09/24 01:45:20;;;;;;;6.55;3.53;;;15.20;95.50;;;;;;4976286;28;20023;-77
2021/09/24 01:47:47;;;;;;;4.93;3.55;;;15.20;95.40;;;;;;4976224;28;20101;-77
2021/09/24 01:50:13;;;;;;;6.07;3.38;;;15.10;95.70;;;;;;4975884;28;20026;-77
2021/09/24 01:52:39;;;;;;;7.63;3.72;;;15.10;95.40;;;;;;4976129;28;20026;-77
2021/09/24 01:55:07;;;;;;;4.78;3.60;;;15.20;95.50;;;;;;4974498;28;20118;-77
2021/09/24 01:57:32;;;;;;;6.72;3.85;;;15.10;95.60;;;;;;4976278;28;20532;-77
2021/09/24 01:59:58;;;;;;;5.72;3.97;;;15.10;95.20;;;;;;4975620;28;20097;-77
2021/09/24 02:02:24;;;;;;;6.22;3.33;;;15.10;95.40;;;;;;4975624;28;20085;-77
2021/09/24 02:04:49;;;;;;;7.07;3.90;;;15.00;95.40;;;;;;4975423;28;20027;-77
2021/09/24 02:07:15;;;;;;;6.15;3.80;;;14.90;95.70;;;;;;4975509;28;20133;-77
2021/09/24 02:09:41;;;;;;;5.20;3.53;;;14.90;95.70;;;;;;4975484;28;20456;-77
2021/09/24 02:12:07;;;;;;;4.88;3.60;;;14.80;95.40;;;;;;4975479;28;20397;-77
2021/09/24 02:14:34;;;;;;;6.68;3.70;;;14.80;95.80;;;;;;4975931;28;20027;-77
2021/09/24 02:17:00;;;;;;;5.28;3.47;;;14.90;95.60;;;;;;4975384;28;20548;-77
2021/09/24 02:19:25;;;;;;;5.40;3.65;;;14.90;95.40;;;;;;4975056;28;20115;-77
2021/09/24 02:21:51;;;;;;;5.97;3.20;;;14.90;95.50;;;;;;4973621;28;20047;-77
2021/09/24 02:24:17;;;;;;;6.28;3.20;;;14.90;95.90;;;;;;4975597;28;20441;-77
2021/09/24 02:26:43;;;;;;;5.25;3.25;;;15.00;95.60;;;;;;4975170;28;20473;-77
2021/09/24 02:29:12;;;;;;;5.57;3.35;;;14.90;95.40;;;;;;4975179;28;20073;-77
2021/09/24 02:31:38;;;;;;;4.90;3.55;;;14.90;95.90;;;;;;4975119;28;20031;-77
2021/09/24 02:34:04;;;;;;;6.55;3.72;;;14.80;95.70;;;;;;4975040;28;20025;-77
2021/09/24 02:36:31;;;;;;;5.82;3.28;;;14.70;96.30;;;;;;4975037;28;20106;-77
2021/09/24 02:38:57;;;;;;;5.82;3.95;;;14.70;95.90;;;;;;4974954;28;20031;-77
2021/09/24 02:41:23;;;;;;;7.05;3.35;;;14.70;96.10;;;;;;4974333;28;20027;-77
2021/09/24 02:43:48;;;;;;;6.03;3.80;;;14.70;96.00;;;;;;4974896;28;20022;-77
2021/09/24 02:46:14;;;;;;;6.65;3.83;;;14.60;96.50;;;;;;4974880;28;20031;-77
2021/09/24 02:48:40;;;;;;;8.40;3.78;;;14.50;96.90;;;;;;4975127;28;20038;-77
2021/09/24 02:51:05;;;;;;;6.28;3.85;;;14.70;96.70;;;;;;4973555;28;20544;-77
2021/09/24 02:53:31;;;;;;;6.45;3.78;;;14.70;96.50;;;;;;4975025;28;20023;-77
2021/09/24 02:55:57;;;;;;;6.68;3.60;;;14.80;96.80;;;;;;4974687;28;20027;-77
2021/09/24 02:58:22;;;;;;;5.95;3.47;;;14.90;96.40;;;;;;4974670;28;20027;-77
2021/09/24 03:00:48;;;;;;;6.80;3.90;;;14.90;96.40;;;;;;4974652;28;20030;-77
2021/09/24 03:03:15;;;;;;;5.45;3.35;;;14.90;96.30;;;;;;4974667;28;20034;-77
2021/09/24 03:05:40;;;;;;;5.93;3.60;;;14.90;96.40;;;;;;4974849;28;20481;-77
2021/09/24 03:08:06;;;;;;;4.82;2.90;;;14.80;96.70;;;;;;4973275;28;20073;-77
2021/09/24 03:10:32;;;;;;;6.75;3.35;;;14.90;96.40;;;;;;4974532;28;20019;-77
2021/09/24 03:12:57;;;;;;;4.97;3.13;;;14.90;96.50;;;;;;4974563;28;20106;-77
2021/09/24 03:15:23;;;;;;;6.70;3.28;;;14.90;96.60;;;;;;4974778;28;20465;-77
2021/09/24 03:17:49;;;;;;;5.93;3.03;;;14.90;96.70;;;;;;4974454;28;20069;-77
2021/09/24 03:20:14;;;;;;;6.10;3.30;;;14.90;96.60;;;;;;4974289;28;20037;-77
2021/09/24 03:22:41;;;;;;;8.40;4.05;;;14.80;96.80;;;;;;4974349;28;20050;-77
2021/09/24 03:25:07;;;;;;;6.15;3.25;;;14.90;96.90;;;;;;4973131;28;20114;-77
2021/09/24 03:27:34;;;;;;;6.00;3.90;;;14.90;96.90;;;;;;4973152;28;20054;-77
2021/09/24 03:30:01;;;;;;;6.72;3.85;;;14.90;97.10;;;;;;4974337;28;20039;-77
2021/09/24 03:32:26;;;;;;;6.78;3.80;;;14.90;96.90;;;;;;4974343;28;20030;-77
2021/09/24 03:34:52;;;;;;;4.10;3.05;;;14.90;97.10;;;;;;4974305;28;20085;-77
2021/09/24 03:37:18;;;;;;;5.63;2.72;;;14.90;97.50;;;;;;4974794;28;20034;-76
2021/09/24 03:39:43;;;;;;;7.95;4.03;;;14.90;97.60;;;;;;4974167;28;20041;-77
2021/09/24 03:42:10;;;;;;;6.05;3.72;;;14.90;97.60;;;;;;4974528;28;20106;-77
2021/09/24 03:44:36;;;;;;;7.10;3.53;;;15.00;97.80;;;;;;4974503;28;20023;-77
2021/09/24 03:47:03;;;;;;;5.30;3.22;;;15.00;97.50;;;;;;4974440;28;20106;-77
2021/09/24 03:49:29;;;;;;;6.63;3.72;;;15.00;97.70;;;;;;4974152;28;20030;-77
2021/09/24 03:51:55;;;;;;;4.80;3.33;;;15.00;97.80;;;;;;4974456;28;20031;-77
2021/09/24 03:54:20;;;;;;;5.78;3.72;;;15.00;98.10;;;;;;4977756;28;20035;-77
2021/09/24 03:56:46;;;;;;;4.78;3.15;;;15.10;97.90;;;;;;4978199;28;20492;-77
2021/09/24 03:59:12;;;;;;;5.35;3.30;;;15.10;97.80;;;;;;4976545;28;20042;-77
2021/09/24 04:01:38;;;;;;;6.45;3.17;;;15.00;98.00;;;;;;4977852;28;20019;-77
2021/09/24 04:04:04;;;;;;;5.82;3.25;;;15.10;97.50;;;;;;4977787;28;20030;-77
2021/09/24 04:06:31;;;;;;;8.07;3.60;;;15.10;97.70;;;;;;4977756;28;20031;-77
2021/09/24 04:08:57;;;;;;;5.78;3.35;;;15.20;97.70;;;;;;4977728;28;20054;-77
2021/09/24 04:11:23;;;;;;;6.00;3.80;;;15.10;97.80;;;;;;4977702;28;20492;-77
2021/09/24 04:13:49;;;;;;;6.43;3.53;;;15.20;97.70;;;;;;4977932;28;20038;-77
2021/09/24 04:16:15;;;;;;;6.45;3.95;;;15.20;97.60;;;;;;4977872;28;20027;-77
2021/09/24 04:18:42;;;;;;;5.93;3.80;;;15.10;98.00;;;;;;4977750;28;20500;-77
2021/09/24 04:21:08;;;;;;;7.10;3.50;;;15.10;97.70;;;;;;4977475;28;20110;-77
2021/09/24 04:23:34;;;;;;;5.50;3.65;;;15.00;97.70;;;;;;4977069;28;20131;-77
2021/09/24 04:25:59;;;;;;;8.50;4.15;;;15.00;97.80;;;;;;4977391;28;20037;-77
2021/09/24 04:28:26;;;;;;;7.50;4.35;;;15.00;98.00;;;;;;4976068;28;20027;-77
2021/09/24 04:30:51;;;;;;;5.95;4.35;;;14.90;98.10;;;;;;4976067;28;20026;-77
2021/09/24 04:33:17;;;;;;;6.57;3.65;;;14.90;98.10;;;;;;4977587;28;20381;-77
2021/09/24 04:35:42;;;;;;;6.47;3.85;;;14.90;97.90;;;;;;4977255;28;20023;-77
2021/09/24 04:38:08;;;;;;;6.88;3.70;;;15.00;97.70;;;;;;4977507;28;20031;-77
2021/09/24 04:40:34;;;;;;;6.85;4.03;;;14.80;98.10;;;;;;4977310;28;20030;-77
2021/09/24 04:43:00;;;;;;;6.30;3.90;;;14.70;98.50;;;;;;4977339;28;20026;-77
2021/09/24 04:45:25;;;;;;;5.93;3.75;;;14.70;98.20;;;;;;4977084;28;20023;-77
2021/09/24 04:47:51;;;;;;;6.80;3.58;;;14.70;98.10;;;;;;4977310;28;20099;-77
2021/09/24 04:50:18;;;;;;;12.52;4.10;;;14.80;98.40;;;;;;4976947;28;20488;-76
2021/09/24 04:52:43;;;;;;;6.50;3.90;;;14.70;98.50;;;;;;4976935;28;20059;-77
2021/09/24 04:55:10;;;;;;;6.28;4.13;;;14.60;98.40;;;;;;4976943;28;20058;-77
2021/09/24 04:57:36;;;;;;;5.80;3.60;;;14.50;99.00;;;;;;4977155;28;20035;-77
2021/09/24 05:00:04;;;;;;;7.18;4.15;;;14.50;99.10;;;;;;4977305;28;20045;-77
2021/09/24 05:02:30;;;;;;;7.85;4.22;;;14.50;99.30;;;;;;4976757;28;20057;-77
2021/09/24 05:04:55;;;;;;;7.05;3.78;;;14.60;99.40;;;;;;4975979;28;20054;-77
2021/09/24 05:07:21;;;;;;;7.35;3.85;;;14.60;99.40;;;;;;4976960;28;20469;-77
2021/09/24 05:09:46;;;;;;;5.20;3.55;;;14.50;99.80;;;;;;4976671;28;20031;-77
2021/09/24 05:12:12;;;;;;;7.43;3.63;;;14.50;99.60;;;;;;4975403;28;20505;-77
2021/09/24 05:14:38;;;;;;;6.20;3.53;;;14.40;99.80;;;;;;4976591;28;20497;-77
2021/09/24 05:17:03;;;;;;;7.38;3.60;;;14.40;99.50;;;;;;4976522;28;20101;-77
2021/09/24 05:19:29;;;;;;;6.40;3.60;;;14.50;99.70;;;;;;4976336;28;20031;-77
2021/09/24 05:21:55;;;;;;;6.60;3.30;;;14.60;99.80;;;;;;4976234;28;20547;-77
2021/09/24 05:24:20;;;;;;;8.55;3.63;;;14.60;99.90;;;;;;4976682;28;20066;-77
2021/09/24 05:26:46;;;;;;;8.75;3.75;;;14.60;99.90;;;;;;4976334;28;20488;-77
2021/09/24 05:29:11;;;;;;;7.72;3.67;;;14.60;99.80;;;;;;4976525;28;20023;-77
2021/09/24 05:31:37;;;;;;;4.57;3.22;;;14.70;99.90;;;;;;4976237;28;20026;-77
2021/09/24 05:34:04;;;;;;;6.47;3.97;;;14.70;99.60;;;;;;4976165;28;20101;-77
2021/09/24 05:36:30;;;;;;;5.72;3.65;;;14.80;99.80;;;;;;4976168;28;20027;-77
2021/09/24 05:38:56;;;;;;;7.30;3.33;;;14.70;99.90;;;;;;4976024;28;20027;-77
2021/09/24 05:41:21;;;;;;;8.18;3.58;;;14.90;99.70;;;;;;4976072;28;20397;-77
2021/09/24 05:43:49;;;;;;;6.00;3.15;;;14.90;99.40;;;;;;4976002;28;20019;-77
2021/09/24 05:46:16;;;;;;;7.35;3.80;;;15.00;99.40;;;;;;4976247;28;20023;-77
2021/09/24 05:48:42;;;;;;;6.22;3.35;;;15.00;99.80;;;;;;4975915;28;20055;-77
2021/09/24 05:51:08;;;;;;;9.95;4.30;;;15.00;99.60;;;;;;4975882;28;20050;-76
2021/09/24 05:53:33;;;;;;;6.88;3.55;;;15.10;99.50;;;;;;4976344;28;20026;-77
2021/09/24 05:55:59;;;;;;;6.32;3.28;;;15.10;99.60;;;;;;4975812;28;20031;-77
2021/09/24 05:58:25;;;;;;;5.15;3.25;;;14.90;99.80;;;;;;4975718;28;20023;-77
2021/09/24 06:00:50;;;;;;;4.93;3.30;;;14.90;99.90;;;;;;4975601;28;20062;-77
2021/09/24 06:03:16;;;;;;;6.18;3.70;;;15.00;99.80;;;;;;4975908;28;20030;-77
2021/09/24 06:05:42;;;;;;;5.35;3.88;;;15.10;99.50;;;;;;4975581;28;20053;-77
2021/09/24 06:08:08;;;;;;;7.38;3.80;;;15.10;99.60;;;;;;4975616;28;20031;-77
2021/09/24 06:10:33;;;;;;;5.40;3.53;;;15.10;99.70;;;;;;4975530;28;20510;-76
2021/09/24 06:12:59;;;;;;;8.90;4.10;;;15.10;99.90;;;;;;4975462;28;20401;-76
2021/09/24 06:15:25;;;;;;;6.93;3.40;;;15.10;99.80;;;;;;4975279;28;20415;-76
2021/09/24 06:17:51;;;;;;;7.95;4.15;;;15.10;99.80;;;;;;4975306;28;20072;-76
2021/09/24 06:20:19;;;;;;;5.93;3.63;;;15.10;99.90;;;;;;4973864;28;20493;-76
2021/09/24 06:22:45;;;;;;;6.07;3.53;;;15.10;99.90;;;;;;4975127;28;20121;-76
2021/09/24 06:25:12;;;;;;;4.80;3.30;;;15.10;99.90;;;;;;4975473;28;20424;-76
2021/09/24 06:27:37;;;;;;;7.78;3.80;;;15.10;99.90;;;;;;4975419;28;20116;-76
2021/09/24 06:30:06;;;;;;;7.57;3.83;;;15.10;99.90;;;;;;4975146;28;20027;-76
2021/09/24 06:32:32;;;;;;;6.00;3.45;;;15.20;99.90;;;;;;4975298;28;20031;-77
2021/09/24 06:34:58;;;;;;;5.95;3.20;;;15.20;99.90;;;;;;4975045;28;20381;-76
2021/09/24 06:37:23;;;;;;;7.05;3.80;;;15.20;99.90;;;;;;4973833;28;20034;-77
2021/09/24 06:39:49;;;;;;;6.30;3.40;;;15.20;99.90;;;;;;4973633;28;20082;-76
2021/09/24 06:42:16;;;;;;;7.07;4.20;;;15.20;99.90;;;;;;4974918;28;20054;-77
2021/09/24 06:44:42;;;;;;;7.70;4.60;;;15.30;99.90;;;;;;4974878;28;20090;-77
2021/09/24 06:47:08;;;;;;;7.10;3.63;;;15.30;99.90;;;;;;4974906;28;20015;-77
2021/09/24 06:49:35;;;;;;;5.90;3.83;;;15.30;99.90;;;;;;4975132;28;20100;-75
2021/09/24 06:52:01;;;;;;;6.20;3.65;;;15.30;99.90;;;;;;4975080;28;20062;-76
2021/09/24 06:54:27;;;;;;;6.85;3.70;;;15.20;99.90;;;;;;4973622;28;20054;-76
2021/09/24 06:56:53;;;;;;;7.07;3.50;;;15.30;99.90;;;;;;4974729;28;20464;-76
2021/09/24 06:59:18;;;;;;;6.82;3.88;;;15.30;99.90;;;;;;4974675;28;20027;-77
2021/09/24 07:01:45;;;;;;;5.03;3.47;;;15.40;99.90;;;;;;4974677;28;20073;-75
2021/09/24 07:04:11;;;;;;;5.88;3.20;;;15.40;99.90;;;;;;4974699;28;20034;-76
2021/09/24 07:06:37;;;;;;;7.10;4.35;;;15.40;99.90;;;;;;4973338;28;20497;-76
2021/09/24 07:09:04;;;;;;;5.70;3.05;;;15.40;99.90;;;;;;4974567;28;20485;-77
2021/09/24 07:11:31;;;;;;;4.25;2.90;;;15.40;99.90;;;;;;4974558;28;20528;-77
2021/09/24 07:13:57;;;;;;;5.78;2.47;;;15.50;99.90;;;;;;4974519;28;20031;-78
2021/09/24 07:16:23;;;;;;;3.25;1.95;;;15.60;99.90;;;;;;4974530;28;20523;-77
2021/09/24 07:18:48;;;;;;;2.83;1.80;;;15.70;99.90;;;;;;4974406;28;20081;-77
2021/09/24 07:21:14;;;;;;;4.20;2.00;;;15.80;99.90;;;;;;4974207;28;20504;-77
2021/09/24 07:23:40;;;;;;;3.35;1.85;;;15.80;99.90;;;;;;4973995;28;20151;-76
2021/09/24 07:26:05;;;;;;;3.92;2.10;;;15.80;99.90;;;;;;4974407;28;20099;-78
2021/09/24 07:28:31;;;;;;;4.40;1.70;;;15.80;99.90;;;;;;4977430;28;20022;-77
2021/09/24 07:30:57;;;;;;;1.60;1.50;;;15.80;99.90;;;;;;4980769;28;20105;-76
2021/09/24 07:33:23;;;;;;;2.55;1.33;;;15.80;99.90;;;;;;4980755;28;20098;-77
2021/09/24 07:35:49;;;;;;;1.80;1.30;;;15.80;99.90;;;;;;4981313;28;20110;-77
2021/09/24 07:38:18;;;;;;;1.40;1.30;;;15.80;99.90;;;;;;4980965;28;20023;-79
2021/09/24 07:40:44;;;;;;;1.90;1.45;;;15.80;99.90;;;;;;4980618;28;20485;-77
2021/09/24 07:43:10;;;;;;;3.17;1.30;;;15.80;99.90;;;;;;4980942;28;20094;-78
2021/09/24 07:45:35;;;;;;;1.73;1.13;;;15.90;99.90;;;;;;4980709;28;20113;-72
2021/09/24 07:48:01;;;;;;;3.85;2.35;;;15.90;99.90;;;;;;4980948;28;20102;-82
2021/09/24 07:50:27;;;;;;;2.53;1.15;;;16.00;99.90;;;;;;4980655;28;20027;-79
2021/09/24 07:52:52;;;;;;;3.70;1.00;;;16.00;99.90;;;;;;4980870;28;20547;-77
2021/09/24 07:55:18;;;;;;;2.55;1.13;;;16.10;99.90;;;;;;4980857;28;20089;-78
2021/09/24 07:57:46;;;;;;;1.17;1.08;;;16.10;99.90;;;;;;4980252;28;20037;-79
2021/09/24 08:00:12;;;;;;;2.85;1.52;;;16.20;99.90;;;;;;4980406;28;20034;-77
2021/09/24 08:02:37;;;;;;;2.22;0.88;;;16.30;99.90;;;;;;4981091;28;20015;-79
2021/09/24 08:05:03;;;;;;;1.00;0.70;;;16.30;99.90;;;;;;4980792;28;20049;-79
2021/09/24 08:07:30;;;;;;;0.43;0.43;;;16.30;99.90;;;;;;4980702;28;20023;-81
2021/09/24 08:09:55;;;;;;;1.13;0.75;;;16.30;99.90;;;;;;4980177;28;20117;-80
2021/09/24 08:12:21;;;;;;;0.85;0.65;;;16.40;99.90;;;;;;4980422;28;20110;-81
2021/09/24 08:14:47;;;;;;;0.70;0.60;;;16.30;99.90;;;;;;4980429;28;20063;-78
2021/09/24 08:17:12;;;;;;;0.50;0.50;;;16.30;99.90;;;;;;4980371;28;20110;-78
2021/09/24 08:19:39;;;;;;;0.63;0.63;;;16.40;99.90;;;;;;4980510;28;20026;-79
2021/09/24 08:22:05;;;;;;;1.00;0.65;;;16.50;99.90;;;;;;4980156;28;20039;-78
2021/09/24 08:24:31;;;;;;;0.55;0.55;;;16.50;99.90;;;;;;4980881;28;20023;-78
2021/09/24 08:26:57;;;;;;;2.00;0.80;;;16.60;99.90;;;;;;4980338;28;20019;-78
2021/09/24 08:29:24;;;;;;;0.60;0.60;;;16.70;99.90;;;;;;4980328;28;20101;-78
2021/09/24 08:31:50;;;;;;;0.70;0.70;;;16.80;99.90;;;;;;4980257;28;20015;-78
2021/09/24 08:34:16;;;;;;;1.40;1.17;;;16.90;99.90;;;;;;4980255;28;20456;-78
2021/09/24 08:36:41;;;;;;;1.83;1.10;;;17.00;98.90;;;;;;4980488;28;20034;-77
2021/09/24 08:39:07;;;;;;;1.30;1.10;;;17.00;99.00;;;;;;4978972;28;20389;-78
2021/09/24 08:41:34;;;;;;;1.30;0.85;;;16.90;98.90;;;;;;4977190;28;20019;-78
2021/09/24 08:43:59;;;;;;;1.73;1.00;;;16.90;98.30;;;;;;4977110;28;20429;-78
2021/09/24 08:46:26;;;;;;;1.77;0.95;;;17.10;98.40;;;;;;4977065;28;20109;-78
2021/09/24 08:48:52;;;;;;;1.05;0.80;;;17.20;98.40;;;;;;4977044;28;20107;-79
2021/09/24 08:51:18;;;;;;;0.98;0.70;;;17.30;98.70;;;;;;4976961;28;20401;-78
2021/09/24 08:53:44;;;;;;;1.45;0.77;;;17.40;97.60;;;;;;4976979;28;20445;-78
2021/09/24 08:56:12;;;;;;;0.70;0.60;;;17.40;97.70;;;;;;4977249;28;20025;-78
2021/09/24 08:58:38;;;;;;;1.92;0.75;;;17.40;98.30;;;;;;4976886;28;20370;-78
2021/09/24 09:01:04;;;;;;;2.40;0.73;;;17.40;96.60;;;;;;4976813;28;20058;-77
2021/09/24 09:03:41;;;;;;;2.78;0.98;;;17.40;97.60;;;;;;4976750;28;20392;-78
2021/09/24 09:06:07;;;;;;;0.60;0.40;;;17.50;96.50;;;;;;4977082;28;20023;-78
2021/09/24 09:08:33;;;;;;;0.45;0.45;;;17.80;96.10;;;;;;4976722;28;20087;-78
2021/09/24 09:11:04;;;;;;;0.60;0.60;;;18.00;96.00;;;;;;4976613;28;20027;-78
2021/09/24 09:13:32;;;;;;;;;;;18.10;95.20;;;;;;4977044;28;20027;-78
2021/09/24 09:16:00;;;;;;;1.75;0.57;;;18.20;95.60;;;;;;4976847;28;19956;-78
2021/09/24 09:18:28;;;;;;;1.00;0.52;;;18.20;94.90;;;;;;4975217;28;20073;-78
2021/09/24 09:20:54;;;;;;;0.70;0.68;;;18.20;94.90;;;;;;4976338;28;20058;-79
2021/09/24 09:23:22;;;;;;;3.00;0.82;;;18.20;94.20;;;;;;4976217;28;20043;-78
2021/09/24 09:25:49;;;;;;;0.85;0.60;;;18.00;94.70;;;;;;4976675;28;20038;-77
2021/09/24 09:28:37;;;;;;;0.75;0.57;;;17.90;95.00;;;;;;4976348;28;20019;-78
2021/09/24 09:31:19;;;;;;;0.80;0.60;;;17.90;94.80;;;;;;4976557;28;20097;-78
2021/09/24 09:33:44;;;;;;;0.32;0.32;;;17.90;94.70;;;;;;4976541;28;20493;-78
2021/09/24 09:36:10;;;;;;;0.60;0.40;;;17.80;95.20;;;;;;4976208;28;20195;-78
2021/09/24 09:38:41;;;;;;;0.52;0.50;;;17.80;95.00;;;;;;4976189;28;20030;-78
2021/09/24 09:41:13;;;;;;;0.40;0.40;;;17.70;95.50;;;;;;4976676;28;20023;-78
2021/09/24 09:43:43;;;;;;;1.50;0.50;;;17.80;95.20;;;;;;4976334;28;20378;-78
2021/09/24 09:46:12;;;;;;;0.70;0.38;;;17.80;95.20;;;;;;4976058;28;20047;-78
2021/09/24 09:48:39;;;;;;;3.58;1.00;;;17.90;95.10;;;;;;4975922;28;20038;-77
2021/09/24 09:51:05;;;;;;;0.40;0.40;;;18.00;95.50;;;;;;4974149;28;20042;-78
2021/09/24 09:53:32;;;;;;;0.95;0.55;;;18.00;95.30;;;;;;4975824;28;20027;-78
2021/09/24 09:56:03;;;;;;;0.75;0.50;;;18.10;94.90;;;;;;4975873;28;20097;-78
2021/09/24 09:58:37;;;;;;;0.60;0.60;;;18.10;94.20;;;;;;4976059;28;20027;-78
2021/09/24 10:01:09;;;;;;;0.70;0.65;;;18.10;95.10;;;;;;4976233;28;20022;-78
2021/09/24 10:03:35;;;;;;;1.17;0.80;;;18.20;94.60;;;;;;4974432;28;20018;-78
2021/09/24 10:06:03;;;;;;;0.90;0.77;;;18.20;94.80;;;;;;4975894;28;20366;-77
2021/09/24 10:08:32;;;;;;;2.22;0.90;;;18.20;95.00;;;;;;4975594;28;20054;-78
2021/09/24 10:11:19;;;;;;;2.10;0.80;;;18.20;95.40;;;;;;4975583;28;20051;-78
2021/09/24 10:14:10;;;;;;;0.80;0.77;;;18.20;95.50;;;;;;4974008;28;20026;-78
2021/09/24 10:16:44;;;;;;;0.80;0.80;;;18.20;94.90;;;;;;4973902;28;20397;-79
2021/09/24 10:19:11;;;;;;;0.50;0.50;;;18.20;95.00;;;;;;4975901;28;20106;-79
2021/09/24 10:21:37;;;;;;;1.20;0.95;;;18.20;95.30;;;;;;4975552;28;20481;-78
2021/09/24 10:24:04;;;;;;;0.75;0.70;;;18.20;95.30;;;;;;4975308;28;20051;-78
2021/09/24 10:26:35;;;;;;;1.15;0.95;;;18.20;95.10;;;;;;4975543;28;20015;-78
2021/09/24 10:29:29;;;;;;;2.65;0.90;;;18.20;94.80;;;;;;4975849;28;20030;-77
2021/09/24 10:31:55;;;;;;;1.02;0.85;;;18.20;95.00;;;;;;4975724;28;20568;-78
2021/09/24 10:34:28;;;;;;;1.90;0.90;;;18.20;94.30;;;;;;4975144;28;20156;-79
2021/09/24 10:36:55;;;;;;;2.20;0.85;;;18.10;94.50;;;;;;4975140;28;20050;-78
2021/09/24 10:39:42;;;;;;;2.90;1.27;;;18.20;94.90;;;;;;4975010;28;20117;-78
2021/09/24 10:42:23;;;;;;;1.27;0.90;;;18.20;94.30;;;;;;4975323;28;20030;-78
2021/09/24 10:45:12;;;;;;;1.50;0.95;;;18.20;94.70;;;;;;4973711;28;20031;-78
2021/09/24 10:47:59;;;;;;;0.80;0.80;;;18.30;93.90;;;;;;4974949;28;20015;-78
2021/09/24 10:53:13;;;;;;;1.80;1.02;;;18.30;94.50;;;;;;4974796;28;20101;-78
2021/09/24 10:56:11;;;;;;;1.27;1.15;;;18.40;94.10;;;;;;4975090;28;20027;-78
2021/09/24 10:58:42;;;;;;;1.35;1.25;;;18.50;93.60;;;;;;4973467;28;20034;-78
2021/09/24 11:01:15;;;;;;;0.90;0.90;;;18.60;93.40;;;;;;4975271;28;20062;-78
2021/09/24 11:03:53;;;;;;;0.88;0.82;;;18.70;93.70;;;;;;4974479;28;20413;-78
2021/09/24 11:06:42;;;;;;;1.30;1.20;;;18.80;93.70;;;;;;4974923;28;20034;-78
2021/09/24 11:09:10;;;;;;;1.10;1.00;;;18.80;93.10;;;;;;4973110;28;20031;-78
2021/09/24 11:11:41;;;;;;;1.30;1.20;;;18.80;93.20;;;;;;4974582;28;20018;-78
2021/09/24 11:14:31;;;;;;;3.30;1.42;;;18.80;92.90;;;;;;4974578;28;20095;-78
2021/09/24 11:16:58;;;;;;;1.25;1.15;;;18.90;93.40;;;;;;4974742;28;20424;-78
2021/09/24 11:19:27;;;;;;;1.33;1.17;;;19.00;92.60;;;;;;4974424;28;20019;-78
2021/09/24 11:21:59;;;;;;;1.73;1.08;;;19.10;92.40;;;;;;4974270;28;20047;-78
2021/09/24 11:24:26;;;;;;;2.17;1.10;;;19.10;92.90;;;;;;4973196;28;20023;-78
2021/09/24 11:27:12;;;;;;;1.30;1.10;;;19.20;92.50;;;;;;4974352;28;20449;-78
2021/09/24 11:30:01;;;;;;;2.47;1.65;;;19.10;92.20;;;;;;4974696;28;20026;-77
2021/09/24 11:32:52;;;;;;;3.38;1.67;;;19.00;92.60;;;;;;4966612;28;20034;-78
2021/09/24 11:35:26;;;;;;;;;;;19.00;92.70;;;;;;4974820;28;20027;-78
2021/09/24 11:37:52;;;;;;;1.98;1.63;;;18.90;92.80;;;;;;4974623;28;19906;-78
2021/09/24 11:40:20;;;;;;;2.80;1.58;;;18.90;92.60;;;;;;4974241;28;20556;-78
2021/09/24 11:42:49;;;;;;;3.20;1.40;;;19.00;92.70;;;;;;4974266;28;20022;-78
2021/09/24 11:45:18;;;;;;;1.30;1.20;;;19.10;92.50;;;;;;4974249;28;20019;-78
2021/09/24 11:47:45;;;;;;;1.77;1.48;;;19.20;91.90;;;;;;4974475;28;20026;-78
2021/09/24 11:50:19;;;;;;;1.80;1.60;;;19.30;91.90;;;;;;4974521;28;20496;-78
2021/09/24 11:52:52;;;;;;;1.42;1.23;;;19.50;91.70;;;;;;4974467;28;20385;-78
2021/09/24 11:55:29;;;;;;;2.92;1.65;;;19.40;91.60;;;;;;4974486;28;20090;-78
2021/09/24 11:58:08;;;;;;;1.50;1.40;;;19.40;91.90;;;;;;4974186;28;20070;-78
2021/09/24 12:01:06;;;;;;;2.33;1.83;;;19.30;92.00;;;;;;4972517;28;20085;-78
2021/09/24 12:03:32;;;;;;;2.17;1.90;;;19.30;92.10;;;;;;4942012;28;20093;-78
2021/09/24 12:06:12;;;;;;;2.03;1.55;;;19.30;92.50;;;;;;4974035;28;20019;-78
2021/09/24 12:08:45;;;;;;;2.67;1.60;;;19.30;92.10;;;;;;4974422;28;20019;-78
2021/09/24 12:11:24;;;;;;;1.67;1.35;;;19.40;92.70;;;;;;4973987;28;20047;-78
2021/09/24 12:14:01;;;;;;;2.40;2.00;;;19.50;92.30;;;;;;4973462;28;20031;-78
2021/09/24 12:16:30;;;;;;;1.70;1.60;;;19.50;91.70;;;;;;4977909;28;20030;-78
2021/09/24 12:19:05;;;;;;;7.07;2.00;;;19.30;91.90;;;;;;4977852;28;20474;-78
2021/09/24 12:21:55;;;;;;;3.75;2.10;;;19.40;91.70;;;;;;4977296;28;20818;-78
2021/09/24 12:24:33;;;;;;;5.65;1.70;;;19.40;91.50;;;;;;4977828;28;20456;-78
2021/09/24 12:27:11;;;;;;;2.13;1.92;;;19.40;92.00;;;;;;4977494;28;20018;-78
2021/09/24 12:29:44;;;;;;;2.35;1.73;;;19.30;91.50;;;;;;4977724;28;20035;-78
2021/09/24 12:32:12;;;;;;;2.88;1.73;;;19.20;91.40;;;;;;4977660;28;20082;-78
2021/09/24 12:35:00;;;;;;;2.03;1.80;;;19.30;91.70;;;;;;4977314;28;20033;-78
2021/09/24 12:37:35;;;;;;;2.33;1.80;;;19.40;92.10;;;;;;4977574;28;20027;-78
2021/09/24 12:40:05;;;;;;;2.58;1.40;;;19.30;91.20;;;;;;4975882;28;20042;-78
2021/09/24 12:42:49;;;;;;;3.72;1.80;;;19.30;92.00;;;;;;4977459;28;20026;-78
2021/09/24 12:45:26;;;;;;;3.80;1.85;;;19.30;91.70;;;;;;4977409;28;20023;-78
2021/09/24 12:47:53;;;;;;;3.70;1.83;;;19.10;92.10;;;;;;4977394;28;20019;-78
2021/09/24 12:50:18;;;;;;;2.35;1.95;;;19.00;92.60;;;;;;4977016;28;20031;-78
2021/09/24 12:52:44;;;;;;;7.10;2.30;;;19.10;92.50;;;;;;4977233;28;20393;-78
2021/09/24 12:55:12;;;;;;;4.28;2.13;;;19.10;92.50;;;;;;4975670;28;20114;-79